EGPK/PIK METAR and TAF weather

Enter ICAO airport designator
Station Type Date Time Source
EGPK METAR 2019/08/17 11:20 UTC NOAA

EGPK 171120Z 22019KT 9999 FEW020 SCT035 16/10 Q0996


Station Type Date Time Source
EGPK Decoded METAR 2019/08/17 11:20 UTC NOAA

Station name not available
Aug 17, 2019 - 07:20 AM EDT / 2019.08.17 1120 UTC
Wind: from the SW (220 degrees) at 22 MPH (19 KT):0
Visibility: greater than 7 mile(s):0
Sky conditions: partly cloudy
Temperature: 60 F (16 C)
Dew Point: 50 F (10 C)
Relative Humidity: 67%
Pressure (altimeter): 29.41 in. Hg (0996 hPa)
ob: EGPK 171120Z 22019KT 9999 FEW020 SCT035 16/10 Q0996
cycle: 11

Station Type Date Time Source
EGPK TAF 2019/08/17 12:06 UTC NOAA

TAF EGPK 171103Z 1712/1812 22014KT 9999 FEW030CB
TEMPO 1712/1808 22018G28KT PROB40
TEMPO 1712/1720 6000 SHRA
TEMPO 1800/1808 5000 RA BKN014 PROB40
TEMPO 1808/1812 25018G28KT 6000 SHRA

Example: see airport list